createdAt,value
2023-04-17T00:04:37.998Z,100.00
2023-04-17T00:09:39.941Z,100.00
2023-04-17T00:14:41.930Z,100.00
2023-04-17T00:19:43.706Z,100.00
2023-04-17T00:24:45.774Z,100.00
2023-04-17T00:29:47.662Z,100.00
2023-04-17T00:34:54.510Z,100.00
2023-04-17T00:39:57.765Z,100.00
2023-04-17T00:44:59.734Z,100.00
2023-04-17T00:50:03.554Z,100.00
2023-04-17T00:55:06.454Z,100.00
2023-04-17T01:00:09.872Z,100.00
2023-04-17T01:05:12.796Z,100.00
2023-04-17T01:10:15.153Z,100.00
2023-04-17T01:15:16.926Z,100.00
2023-04-17T01:20:19.218Z,100.00
2023-04-17T01:25:21.090Z,100.00
2023-04-17T01:30:23.084Z,100.00
2023-04-17T01:35:25.166Z,100.00
2023-04-17T01:40:27.128Z,100.00
2023-04-17T01:45:28.921Z,100.00
2023-04-17T01:50:30.895Z,100.00
2023-04-17T01:55:33.067Z,100.00
2023-04-17T02:00:34.845Z,100.00
2023-04-17T02:05:37.126Z,100.00
2023-04-17T02:10:39.514Z,100.00
2023-04-17T02:15:42.055Z,100.00
2023-04-17T02:20:43.985Z,100.00
2023-04-17T02:25:45.764Z,100.00
2023-04-17T02:30:47.637Z,100.00
2023-04-17T02:35:49.619Z,100.00
2023-04-17T02:40:51.704Z,100.00
2023-04-17T02:45:53.373Z,100.00
2023-04-17T02:50:55.251Z,100.00
2023-04-17T02:55:57.851Z,100.00
2023-04-17T03:01:01.614Z,100.00
2023-04-17T03:06:04.062Z,100.00
2023-04-17T03:11:06.355Z,100.00
2023-04-17T03:16:08.397Z,100.00
2023-04-17T03:21:10.529Z,100.00
2023-04-17T03:26:12.287Z,100.00
2023-04-17T03:31:14.380Z,100.00
2023-04-17T03:36:17.474Z,100.00
2023-04-17T03:41:19.245Z,100.00
2023-04-17T03:46:21.383Z,100.00
2023-04-17T03:51:23.919Z,100.00
2023-04-17T03:56:25.696Z,100.00
2023-04-17T04:01:27.979Z,100.00
2023-04-17T04:06:30.126Z,100.00
2023-04-17T04:11:31.930Z,100.00
2023-04-17T04:16:34.004Z,100.00
2023-04-17T04:21:36.193Z,100.00
2023-04-17T04:26:40.627Z,100.00
2023-04-17T04:31:42.700Z,100.00
2023-04-17T04:36:49.606Z,100.00
2023-04-17T04:41:52.031Z,100.00
2023-04-17T04:46:55.065Z,100.00
2023-04-17T04:51:56.872Z,100.00
2023-04-17T04:56:58.547Z,100.00
2023-04-17T05:02:00.516Z,100.00
2023-04-17T05:07:04.662Z,100.00
2023-04-17T05:12:06.843Z,100.00
2023-04-17T05:17:08.590Z,100.00
2023-04-17T05:22:10.600Z,99.95
2023-04-17T05:27:12.474Z,97.35
2023-04-17T05:32:14.357Z,94.58
2023-04-17T05:37:16.534Z,92.69
2023-04-17T05:42:18.308Z,91.01
2023-04-17T05:47:20.126Z,89.84
2023-04-17T05:52:22.063Z,88.14
2023-04-17T05:57:23.840Z,88.62
2023-04-17T06:02:26.375Z,89.59
2023-04-17T06:07:29.166Z,89.26
2023-04-17T06:12:32.027Z,88.85
2023-04-17T06:17:36.782Z,86.19
2023-04-17T06:22:40.720Z,86.04
2023-04-17T06:27:42.527Z,85.48
2023-04-17T06:32:44.269Z,81.60
2023-04-17T06:37:46.023Z,79.77
2023-04-17T06:42:47.693Z,77.50
2023-04-17T06:47:49.409Z,74.93
2023-04-17T06:52:51.765Z,74.40
2023-04-17T06:57:54.467Z,73.63
2023-04-17T07:02:56.562Z,73.40
2023-04-17T07:07:59.127Z,70.99
2023-04-17T07:13:01.918Z,66.27
2023-04-17T07:18:03.844Z,60.78
2023-04-17T07:23:05.774Z,57.35
2023-04-17T07:28:07.755Z,53.79
2023-04-17T07:33:09.978Z,53.35
2023-04-17T07:38:12.020Z,53.51
2023-04-17T07:43:13.896Z,54.85
2023-04-17T07:48:19.486Z,57.08
2023-04-17T07:53:21.950Z,59.56
2023-04-17T07:58:23.929Z,63.21
2023-04-17T08:03:26.144Z,66.82
2023-04-17T08:08:28.918Z,69.47
2023-04-17T08:13:31.914Z,71.33
2023-04-17T08:18:33.797Z,71.74
2023-04-17T08:23:36.082Z,71.94
2023-04-17T08:28:38.164Z,71.92
2023-04-17T08:33:40.045Z,71.64
2023-04-17T08:38:45.066Z,71.77
2023-04-17T08:43:50.040Z,71.92
2023-04-17T08:48:52.268Z,72.52
2023-04-17T08:53:55.121Z,72.66
2023-04-17T08:58:56.907Z,73.58
2023-04-17T09:03:58.847Z,74.46
2023-04-17T09:09:03.518Z,74.72
2023-04-17T09:14:05.503Z,75.05
2023-04-17T09:19:08.308Z,75.15
2023-04-17T09:24:10.300Z,75.21
2023-04-17T09:29:13.183Z,74.72
2023-04-17T09:34:16.790Z,74.23
2023-04-17T09:39:23.430Z,74.52
2023-04-17T09:44:27.514Z,74.76
2023-04-17T09:49:55.507Z,75.21
2023-04-17T09:54:57.586Z,75.24
2023-04-17T10:00:04.570Z,76.10
2023-04-17T10:05:10.249Z,76.22
2023-04-17T10:10:22.767Z,75.89
2023-04-17T10:15:25.974Z,75.30
2023-04-17T10:20:27.892Z,75.08
2023-04-17T10:25:30.879Z,75.24
2023-04-17T10:30:53.662Z,74.31
2023-04-17T10:35:55.732Z,74.35
2023-04-17T10:41:02.091Z,74.73
2023-04-17T10:46:12.901Z,74.86
2023-04-17T10:51:21.233Z,75.12
2023-04-17T10:56:30.025Z,76.19
2023-04-17T11:01:37.949Z,77.21
2023-04-17T11:06:40.144Z,77.09
2023-04-17T11:11:44.994Z,76.59
2023-04-17T11:16:49.434Z,76.88
2023-04-17T11:21:53.377Z,77.38
2023-04-17T11:26:57.890Z,78.06
2023-04-17T11:32:00.920Z,79.12
2023-04-17T11:37:03.198Z,80.79
2023-04-17T11:42:05.257Z,81.99
2023-04-17T11:47:07.341Z,83.13
2023-04-17T11:52:10.652Z,83.88
2023-04-17T11:57:14.274Z,84.79
2023-04-17T12:02:16.232Z,85.83
2023-04-17T12:07:25.260Z,86.63
2023-04-17T12:12:29.011Z,87.09
2023-04-17T12:17:30.851Z,86.63
2023-04-17T12:22:32.975Z,86.58
2023-04-17T12:27:37.615Z,86.82
2023-04-17T12:32:39.306Z,86.01
2023-04-17T12:37:47.812Z,86.65
2023-04-17T12:42:49.861Z,85.30
2023-04-17T12:47:51.924Z,84.39
2023-04-17T12:52:54.263Z,84.15
2023-04-17T12:57:56.194Z,83.75
2023-04-17T13:02:58.647Z,83.24
2023-04-17T13:08:01.120Z,83.19
2023-04-17T13:13:04.337Z,83.26
2023-04-17T13:18:07.752Z,83.71
2023-04-17T13:23:11.461Z,83.40
2023-04-17T13:28:13.653Z,83.08
2023-04-17T13:33:16.038Z,83.26
2023-04-17T13:38:17.807Z,82.81
2023-04-17T13:43:19.689Z,81.78
2023-04-17T13:48:21.973Z,81.51
2023-04-17T13:53:24.672Z,81.27
2023-04-17T13:58:26.650Z,81.22
2023-04-17T14:03:29.188Z,80.85
2023-04-17T14:08:31.422Z,80.18
2023-04-17T14:13:33.530Z,80.46
2023-04-17T14:18:36.513Z,79.99
2023-04-17T14:23:40.035Z,78.95
2023-04-17T14:28:42.340Z,78.62
2023-04-17T14:33:44.089Z,78.41
2023-04-17T14:38:50.581Z,78.99
2023-04-17T14:43:52.806Z,79.77
2023-04-17T14:48:56.106Z,79.73
2023-04-17T14:53:58.215Z,79.92
2023-04-17T14:59:01.303Z,80.49
2023-04-17T15:04:03.855Z,80.62
2023-04-17T15:09:06.566Z,80.82
2023-04-17T15:14:08.314Z,81.51
2023-04-17T15:19:10.266Z,81.74
2023-04-17T15:24:12.594Z,82.22
2023-04-17T15:29:14.824Z,82.65
2023-04-17T15:34:16.858Z,83.03
2023-04-17T15:39:19.139Z,83.47
2023-04-17T15:44:21.225Z,83.61
2023-04-17T15:49:24.698Z,84.01
2023-04-17T15:54:27.945Z,84.40
2023-04-17T15:59:31.874Z,84.53
2023-04-17T16:04:33.816Z,84.80
2023-04-17T16:09:35.636Z,85.33
2023-04-17T16:14:38.335Z,85.17
2023-04-17T16:19:40.398Z,85.44
2023-04-17T16:24:42.373Z,85.44
2023-04-17T16:29:45.364Z,85.85
2023-04-17T16:34:47.359Z,85.69
2023-04-17T16:39:50.383Z,86.01
2023-04-17T16:44:52.136Z,86.11
2023-04-17T16:49:53.914Z,86.36
2023-04-17T16:54:56.611Z,86.40
2023-04-17T17:00:00.028Z,86.52
2023-04-17T17:05:08.410Z,86.71
2023-04-17T17:10:12.066Z,87.11
2023-04-17T17:15:14.369Z,87.91
2023-04-17T17:20:16.336Z,88.89
2023-04-17T17:25:18.724Z,89.69
2023-04-17T17:30:20.906Z,90.29
2023-04-17T17:35:23.740Z,90.87
2023-04-17T17:40:25.999Z,91.27
2023-04-17T17:45:28.384Z,91.41
2023-04-17T17:50:30.154Z,91.68
2023-04-17T17:55:36.742Z,92.23
2023-04-17T18:00:38.930Z,92.57
2023-04-17T18:05:42.442Z,92.77
2023-04-17T18:10:45.657Z,92.91
2023-04-17T18:15:49.152Z,93.37
2023-04-17T18:20:51.766Z,94.42
2023-04-17T18:25:58.560Z,95.18
2023-04-17T18:31:02.831Z,96.19
2023-04-17T18:36:06.402Z,97.62
2023-04-17T18:41:08.894Z,97.73
2023-04-17T18:46:11.508Z,97.77
2023-04-17T18:51:14.601Z,98.56
2023-04-17T18:56:17.505Z,99.20
2023-04-17T19:01:19.756Z,99.88
2023-04-17T19:06:23.514Z,100.00
2023-04-17T19:11:29.585Z,100.00
2023-04-17T19:16:32.300Z,100.00
2023-04-17T19:21:34.558Z,100.00
2023-04-17T19:26:36.636Z,100.00
2023-04-17T19:31:42.472Z,100.00
2023-04-17T19:36:45.015Z,100.00
2023-04-17T19:41:50.354Z,100.00
2023-04-17T19:46:53.257Z,100.00
2023-04-17T19:51:55.859Z,100.00
2023-04-17T19:56:57.934Z,100.00
2023-04-17T20:01:59.936Z,100.00
2023-04-17T20:07:02.399Z,100.00
2023-04-17T20:12:05.625Z,100.00
2023-04-17T20:17:07.767Z,100.00
2023-04-17T20:22:10.295Z,100.00
2023-04-17T20:27:12.085Z,100.00
2023-04-17T20:32:14.792Z,100.00
2023-04-17T20:37:17.866Z,100.00
2023-04-17T20:42:20.273Z,100.00
2023-04-17T20:47:22.568Z,100.00
2023-04-17T20:52:25.745Z,100.00
2023-04-17T20:57:29.230Z,100.00
2023-04-17T21:02:33.156Z,100.00
2023-04-17T21:07:36.197Z,100.00
2023-04-17T21:12:38.165Z,100.00
2023-04-17T21:17:39.964Z,100.00
2023-04-17T21:22:41.826Z,100.00
2023-04-17T21:27:43.806Z,100.00
2023-04-17T21:32:47.147Z,100.00
2023-04-17T21:37:49.307Z,100.00
2023-04-17T21:42:51.097Z,100.00
2023-04-17T21:47:52.964Z,100.00
2023-04-17T21:52:55.330Z,100.00
2023-04-17T21:57:57.185Z,100.00
2023-04-17T22:02:59.119Z,100.00
2023-04-17T22:08:01.080Z,100.00
2023-04-17T22:13:03.059Z,100.00
2023-04-17T22:18:05.366Z,100.00
2023-04-17T22:23:07.209Z,100.00
2023-04-17T22:28:09.101Z,100.00
2023-04-17T22:33:10.960Z,100.00
2023-04-17T22:38:12.944Z,100.00
2023-04-17T22:43:15.126Z,100.00
2023-04-17T22:48:17.927Z,100.00
2023-04-17T22:53:19.707Z,100.00
2023-04-17T22:58:21.371Z,100.00
2023-04-17T23:11:22.280Z,100.00
2023-04-17T23:16:26.011Z,100.00
2023-04-17T23:21:29.099Z,100.00
2023-04-17T23:26:32.315Z,100.00
2023-04-17T23:31:37.938Z,100.00
2023-04-17T23:36:41.329Z,100.00
2023-04-17T23:41:44.608Z,100.00
2023-04-17T23:46:47.876Z,100.00
2023-04-17T23:51:51.019Z,100.00
2023-04-17T23:56:54.218Z,100.00
